Hart, Michigan
Current Conditions -  °F | °C
As of 12:55 PM on Thursday 30 Oct 2014 (Local Time) from KLDM Reporting Station
Broken Clouds Broken Clouds  
Wind Chill: 45°   Ceiling: 11000
Heat Index: 49°   Visibility: 10mi
Dew Point: 39°   Wind: 9mph
Humidity: 69%   Direction: 220°SW
Pressure: 30.08"   Gusts: NA
Location:  43.7°N, 86.36°W
Report Text: KLDM 301655Z AUTO 22008KT 10SM SCT027 SCT035 BKN110 10/04 A3008 RMK AO2 T00960041
Loading
Personal Weather Stations






























Interactive Weather Map
Tropical Storm Tracking
New forecast layout! Learn more

10-Day Weather Forecast

Advertisements
Track Severe Weather on mobile